Hauptseite
METAR-TAF:

METAR-TAF

Flughäfen :

Middle Wallop, England

Middle Wallop Airfield

Breite: 51-09N, Länge: 001-34W, Höhe: 91 m

Beobachtung

Neuester Wetterbericht von vor 1 Stunde und 5 Minuten, um 11:50 UTC
Wind 3 kt aus Ost
Temperatur 5°C
Luftfeuchtigkeit 100%
Luftdruck 998 hPa
Sichtweite: 3800 m

METAR: EGVP 201150Z AUTO 10003KT 3800 // OVC002/// 05/05 Q0998

Zeit: 12:55 (12:55 UTC)

Prognose

Neuester Wetterbericht von vor 23 Stunden und 33 Minuten, um 13:22 UTC
Gültige Prognose vom 19 um 15 UTC bis 19 um 18 UTC
Wind 12 kt aus West
Sichtweite 10 km oder mehr
Leicht bewölkt in der Höhe von 2500 ft
Wahrscheinlichkeit 30% :
Zeitweise
vom 19 um 15 UTC bis 19 um 17 UTC
Wind 15 kt aus West, Böen bis zu 25 kt
Sichtweite: 6000 m
Aufgelockert bewölkt in der Höhe von 2000 ft, Kumulonimbus.
Regenschauer

TAF: EGVP 191322Z 1915/1918 26012KT 9999 FEW025 PROB30 TEMPO 1915/1917 27015G25KT 6000 SHRA SCT020CB

Wetterbeobachtungen und Prognosen von mehr als 4000 Flughäfen (METAR und TAF Bericht).

Die verfügbaren Stationen werden durch gelbe und rote Markierungen auf der Karte dargestellt.

Führen Sie die Maus auf sie, um den Namen der Station zu sehen.

Darauf klicken, um die Beobachtung von Wetterbeobachtungen und Prognosen zu sehen.

Um die Karte zu ändern : klicken Sie auf den grünen Tasten mit einem schwarzen Kreuz Zum Vergrößern, auf den grünen Button mit einem Gedankenstrich zu verkleinern, oder auf die grünen Pfeile für benachbarte Karten.


METAR-TAF: